sensor_id;sensor_type;location;lat;lon;timestamp;P1;durP1;ratioP1;P2;durP2;ratioP2
67751;SDS011;54551;51.068;5.826;2022-12-24T00:00:23;30.23;;;6.03;;
67751;SDS011;54551;51.068;5.826;2022-12-24T00:02:49;32.30;;;6.80;;
67751;SDS011;54551;51.068;5.826;2022-12-24T00:05:15;31.30;;;6.07;;
67751;SDS011;54551;51.068;5.826;2022-12-24T00:07:41;35.73;;;7.47;;
67751;SDS011;54551;51.068;5.826;2022-12-24T00:10:08;32.43;;;6.93;;
67751;SDS011;54551;51.068;5.826;2022-12-24T00:12:35;30.40;;;5.87;;
67751;SDS011;54551;51.068;5.826;2022-12-24T00:15:01;34.63;;;7.27;;
67751;SDS011;54551;51.068;5.826;2022-12-24T00:17:28;29.57;;;6.80;;
67751;SDS011;54551;51.068;5.826;2022-12-24T00:19:54;34.03;;;7.20;;
67751;SDS011;54551;51.068;5.826;2022-12-24T00:22:20;31.23;;;6.50;;
67751;SDS011;54551;51.068;5.826;2022-12-24T00:24:46;33.23;;;7.47;;
67751;SDS011;54551;51.068;5.826;2022-12-24T00:27:12;35.50;;;7.20;;
67751;SDS011;54551;51.068;5.826;2022-12-24T00:29:38;36.47;;;7.13;;
67751;SDS011;54551;51.068;5.826;2022-12-24T00:32:04;38.63;;;7.17;;
67751;SDS011;54551;51.068;5.826;2022-12-24T00:34:37;30.07;;;6.73;;
67751;SDS011;54551;51.068;5.826;2022-12-24T00:37:04;34.07;;;6.73;;
67751;SDS011;54551;51.068;5.826;2022-12-24T00:39:30;40.17;;;7.10;;
67751;SDS011;54551;51.068;5.826;2022-12-24T00:41:57;32.13;;;6.23;;
67751;SDS011;54551;51.068;5.826;2022-12-24T00:44:23;34.13;;;7.20;;
67751;SDS011;54551;51.068;5.826;2022-12-24T00:46:49;35.53;;;7.53;;
67751;SDS011;54551;51.068;5.826;2022-12-24T00:49:15;30.17;;;6.70;;
67751;SDS011;54551;51.068;5.826;2022-12-24T00:51:41;35.83;;;6.77;;
67751;SDS011;54551;51.068;5.826;2022-12-24T00:54:07;39.53;;;7.67;;
67751;SDS011;54551;51.068;5.826;2022-12-24T00:56:33;25.17;;;6.13;;
67751;SDS011;54551;51.068;5.826;2022-12-24T00:58:59;30.00;;;5.73;;
67751;SDS011;54551;51.068;5.826;2022-12-24T01:01:25;31.03;;;6.37;;
67751;SDS011;54551;51.068;5.826;2022-12-24T01:03:52;32.37;;;6.50;;
67751;SDS011;54551;51.068;5.826;2022-12-24T01:06:38;30.87;;;6.13;;
67751;SDS011;54551;51.068;5.826;2022-12-24T01:09:04;33.50;;;6.20;;
67751;SDS011;54551;51.068;5.826;2022-12-24T01:11:31;30.10;;;6.10;;
67751;SDS011;54551;51.068;5.826;2022-12-24T01:13:57;29.83;;;6.30;;
67751;SDS011;54551;51.068;5.826;2022-12-24T01:16:23;29.30;;;6.80;;
67751;SDS011;54551;51.068;5.826;2022-12-24T01:18:49;26.77;;;4.97;;
67751;SDS011;54551;51.068;5.826;2022-12-24T01:21:15;33.00;;;6.30;;
67751;SDS011;54551;51.068;5.826;2022-12-24T01:23:41;31.37;;;6.37;;
67751;SDS011;54551;51.068;5.826;2022-12-24T01:26:08;36.83;;;6.60;;
67751;SDS011;54551;51.068;5.826;2022-12-24T01:28:36;33.30;;;6.73;;
67751;SDS011;54551;51.068;5.826;2022-12-24T01:31:08;28.67;;;5.70;;
67751;SDS011;54551;51.068;5.826;2022-12-24T01:33:44;24.83;;;5.17;;
67751;SDS011;54551;51.068;5.826;2022-12-24T01:36:11;31.23;;;5.70;;
67751;SDS011;54551;51.068;5.826;2022-12-24T01:38:38;23.33;;;6.23;;
67751;SDS011;54551;51.068;5.826;2022-12-24T01:41:04;28.10;;;5.63;;
67751;SDS011;54551;51.068;5.826;2022-12-24T01:43:49;28.43;;;5.60;;
67751;SDS011;54551;51.068;5.826;2022-12-24T01:46:17;24.50;;;6.27;;
67751;SDS011;54551;51.068;5.826;2022-12-24T01:48:48;37.33;;;7.07;;
67751;SDS011;54551;51.068;5.826;2022-12-24T01:51:25;30.47;;;6.97;;
67751;SDS011;54551;51.068;5.826;2022-12-24T01:54:02;34.47;;;5.73;;
67751;SDS011;54551;51.068;5.826;2022-12-24T01:56:32;27.37;;;6.13;;
67751;SDS011;54551;51.068;5.826;2022-12-24T01:59:06;27.47;;;5.80;;
67751;SDS011;54551;51.068;5.826;2022-12-24T02:01:34;27.67;;;6.13;;
67751;SDS011;54551;51.068;5.826;2022-12-24T02:04:06;32.70;;;6.30;;
67751;SDS011;54551;51.068;5.826;2022-12-24T02:06:41;25.63;;;6.53;;
67751;SDS011;54551;51.068;5.826;2022-12-24T02:09:07;31.67;;;6.50;;
67751;SDS011;54551;51.068;5.826;2022-12-24T02:11:33;29.33;;;6.27;;
67751;SDS011;54551;51.068;5.826;2022-12-24T02:14:03;31.03;;;6.63;;
67751;SDS011;54551;51.068;5.826;2022-12-24T02:22:16;26.93;;;5.43;;
67751;SDS011;54551;51.068;5.826;2022-12-24T02:30:21;28.30;;;5.33;;
67751;SDS011;54551;51.068;5.826;2022-12-24T02:32:57;23.83;;;5.53;;
67751;SDS011;54551;51.068;5.826;2022-12-24T02:35:54;28.20;;;5.17;;
67751;SDS011;54551;51.068;5.826;2022-12-24T02:41:17;28.40;;;5.70;;
67751;SDS011;54551;51.068;5.826;2022-12-24T02:43:47;20.23;;;4.90;;
67751;SDS011;54551;51.068;5.826;2022-12-24T02:46:23;29.37;;;6.13;;
67751;SDS011;54551;51.068;5.826;2022-12-24T02:48:51;23.83;;;5.53;;
67751;SDS011;54551;51.068;5.826;2022-12-24T02:51:20;23.43;;;5.60;;
67751;SDS011;54551;51.068;5.826;2022-12-24T02:53:48;21.97;;;5.03;;
67751;SDS011;54551;51.068;5.826;2022-12-24T03:07:15;20.10;;;4.63;;
67751;SDS011;54551;51.068;5.826;2022-12-24T03:09:50;17.37;;;3.93;;
67751;SDS011;54551;51.068;5.826;2022-12-24T03:12:54;20.07;;;4.53;;
67751;SDS011;54551;51.068;5.826;2022-12-24T03:15:23;15.67;;;4.10;;
67751;SDS011;54551;51.068;5.826;2022-12-24T03:17:52;22.67;;;4.83;;
67751;SDS011;54551;51.068;5.826;2022-12-24T03:20:21;18.57;;;3.63;;
67751;SDS011;54551;51.068;5.826;2022-12-24T03:22:52;18.53;;;3.77;;
67751;SDS011;54551;51.068;5.826;2022-12-24T03:25:17;17.40;;;4.17;;
67751;SDS011;54551;51.068;5.826;2022-12-24T03:27:47;17.07;;;3.50;;
67751;SDS011;54551;51.068;5.826;2022-12-24T03:30:13;20.17;;;4.57;;
67751;SDS011;54551;51.068;5.826;2022-12-24T03:32:40;19.30;;;4.37;;
67751;SDS011;54551;51.068;5.826;2022-12-24T03:35:06;16.30;;;4.00;;
67751;SDS011;54551;51.068;5.826;2022-12-24T03:37:32;18.13;;;3.77;;
67751;SDS011;54551;51.068;5.826;2022-12-24T03:39:58;18.90;;;3.97;;
67751;SDS011;54551;51.068;5.826;2022-12-24T03:42:24;21.33;;;4.50;;
67751;SDS011;54551;51.068;5.826;2022-12-24T03:44:50;22.23;;;4.03;;
67751;SDS011;54551;51.068;5.826;2022-12-24T03:47:15;18.87;;;3.70;;
67751;SDS011;54551;51.068;5.826;2022-12-24T03:49:41;18.37;;;3.63;;
67751;SDS011;54551;51.068;5.826;2022-12-24T03:52:07;15.57;;;4.30;;
67751;SDS011;54551;51.068;5.826;2022-12-24T03:54:33;17.07;;;4.53;;
67751;SDS011;54551;51.068;5.826;2022-12-24T03:56:59;17.80;;;4.13;;
67751;SDS011;54551;51.068;5.826;2022-12-24T03:59:25;21.03;;;4.60;;
67751;SDS011;54551;51.068;5.826;2022-12-24T04:01:54;18.10;;;4.60;;
67751;SDS011;54551;51.068;5.826;2022-12-24T04:04:20;19.83;;;4.93;;
67751;SDS011;54551;51.068;5.826;2022-12-24T04:06:46;19.53;;;4.27;;
67751;SDS011;54551;51.068;5.826;2022-12-24T04:09:11;18.73;;;4.60;;
67751;SDS011;54551;51.068;5.826;2022-12-24T04:11:37;18.43;;;4.57;;
67751;SDS011;54551;51.068;5.826;2022-12-24T04:14:03;18.23;;;4.03;;
67751;SDS011;54551;51.068;5.826;2022-12-24T04:16:29;16.67;;;4.60;;
67751;SDS011;54551;51.068;5.826;2022-12-24T04:18:55;21.53;;;4.93;;
67751;SDS011;54551;51.068;5.826;2022-12-24T04:21:21;21.27;;;4.17;;
67751;SDS011;54551;51.068;5.826;2022-12-24T04:23:47;17.57;;;4.57;;
67751;SDS011;54551;51.068;5.826;2022-12-24T04:26:13;19.70;;;4.47;;
67751;SDS011;54551;51.068;5.826;2022-12-24T04:28:40;21.37;;;4.47;;
67751;SDS011;54551;51.068;5.826;2022-12-24T04:31:08;17.00;;;4.17;;
67751;SDS011;54551;51.068;5.826;2022-12-24T04:33:36;26.70;;;5.80;;
67751;SDS011;54551;51.068;5.826;2022-12-24T04:36:03;29.53;;;6.20;;
67751;SDS011;54551;51.068;5.826;2022-12-24T04:38:30;24.33;;;5.90;;
67751;SDS011;54551;51.068;5.826;2022-12-24T04:41:01;19.37;;;5.33;;
67751;SDS011;54551;51.068;5.826;2022-12-24T04:43:29;25.37;;;5.23;;
67751;SDS011;54551;51.068;5.826;2022-12-24T04:45:55;19.17;;;5.13;;
67751;SDS011;54551;51.068;5.826;2022-12-24T04:48:21;23.10;;;5.13;;
67751;SDS011;54551;51.068;5.826;2022-12-24T04:50:47;23.83;;;5.23;;
67751;SDS011;54551;51.068;5.826;2022-12-24T04:53:13;25.77;;;6.30;;
67751;SDS011;54551;51.068;5.826;2022-12-24T04:55:43;23.07;;;5.93;;
67751;SDS011;54551;51.068;5.826;2022-12-24T04:58:10;23.30;;;5.60;;
67751;SDS011;54551;51.068;5.826;2022-12-24T05:00:37;22.23;;;5.80;;
67751;SDS011;54551;51.068;5.826;2022-12-24T05:03:03;32.63;;;6.30;;
67751;SDS011;54551;51.068;5.826;2022-12-24T05:05:29;22.07;;;4.73;;
67751;SDS011;54551;51.068;5.826;2022-12-24T05:08:01;26.10;;;6.20;;
67751;SDS011;54551;51.068;5.826;2022-12-24T05:10:28;24.73;;;5.40;;
67751;SDS011;54551;51.068;5.826;2022-12-24T05:12:53;18.60;;;5.07;;
67751;SDS011;54551;51.068;5.826;2022-12-24T05:15:19;27.17;;;5.93;;
67751;SDS011;54551;51.068;5.826;2022-12-24T05:17:45;22.77;;;5.60;;
67751;SDS011;54551;51.068;5.826;2022-12-24T05:20:11;25.77;;;6.00;;
67751;SDS011;54551;51.068;5.826;2022-12-24T05:22:37;25.90;;;6.10;;
67751;SDS011;54551;51.068;5.826;2022-12-24T05:25:21;31.60;;;6.13;;
67751;SDS011;54551;51.068;5.826;2022-12-24T05:28:06;27.30;;;6.47;;
67751;SDS011;54551;51.068;5.826;2022-12-24T05:30:31;27.73;;;6.13;;
67751;SDS011;54551;51.068;5.826;2022-12-24T05:32:57;29.20;;;6.43;;
67751;SDS011;54551;51.068;5.826;2022-12-24T05:35:23;29.27;;;7.53;;
67751;SDS011;54551;51.068;5.826;2022-12-24T05:37:50;29.03;;;5.83;;
67751;SDS011;54551;51.068;5.826;2022-12-24T05:40:16;27.60;;;6.23;;
67751;SDS011;54551;51.068;5.826;2022-12-24T05:42:42;36.30;;;6.80;;
67751;SDS011;54551;51.068;5.826;2022-12-24T05:45:09;28.20;;;6.10;;
67751;SDS011;54551;51.068;5.826;2022-12-24T05:47:35;26.77;;;6.67;;
67751;SDS011;54551;51.068;5.826;2022-12-24T05:50:01;23.83;;;6.20;;
67751;SDS011;54551;51.068;5.826;2022-12-24T05:52:27;25.47;;;6.17;;
67751;SDS011;54551;51.068;5.826;2022-12-24T05:54:52;31.50;;;6.60;;
67751;SDS011;54551;51.068;5.826;2022-12-24T05:57:18;31.80;;;6.00;;
67751;SDS011;54551;51.068;5.826;2022-12-24T05:59:44;32.13;;;6.10;;
67751;SDS011;54551;51.068;5.826;2022-12-24T06:02:10;26.97;;;6.47;;
67751;SDS011;54551;51.068;5.826;2022-12-24T06:04:36;31.47;;;6.23;;
67751;SDS011;54551;51.068;5.826;2022-12-24T06:07:02;27.93;;;6.00;;
67751;SDS011;54551;51.068;5.826;2022-12-24T06:09:27;32.03;;;6.63;;
67751;SDS011;54551;51.068;5.826;2022-12-24T06:11:53;27.93;;;6.23;;
67751;SDS011;54551;51.068;5.826;2022-12-24T06:14:19;31.83;;;6.53;;
67751;SDS011;54551;51.068;5.826;2022-12-24T06:16:45;29.40;;;6.77;;
67751;SDS011;54551;51.068;5.826;2022-12-24T06:19:11;28.27;;;6.47;;
67751;SDS011;54551;51.068;5.826;2022-12-24T06:21:37;30.07;;;6.93;;
67751;SDS011;54551;51.068;5.826;2022-12-24T06:24:03;27.80;;;6.20;;
67751;SDS011;54551;51.068;5.826;2022-12-24T06:26:29;27.63;;;5.87;;
67751;SDS011;54551;51.068;5.826;2022-12-24T06:28:55;27.67;;;5.20;;
67751;SDS011;54551;51.068;5.826;2022-12-24T06:31:21;27.73;;;5.73;;
67751;SDS011;54551;51.068;5.826;2022-12-24T06:33:47;27.23;;;6.50;;
67751;SDS011;54551;51.068;5.826;2022-12-24T06:36:18;30.57;;;6.37;;
67751;SDS011;54551;51.068;5.826;2022-12-24T06:38:46;24.87;;;5.40;;
67751;SDS011;54551;51.068;5.826;2022-12-24T06:41:14;32.93;;;5.77;;
67751;SDS011;54551;51.068;5.826;2022-12-24T06:43:44;31.07;;;6.60;;
67751;SDS011;54551;51.068;5.826;2022-12-24T06:46:11;30.20;;;6.30;;
67751;SDS011;54551;51.068;5.826;2022-12-24T06:48:37;30.83;;;6.47;;
67751;SDS011;54551;51.068;5.826;2022-12-24T06:51:03;27.60;;;5.50;;
67751;SDS011;54551;51.068;5.826;2022-12-24T06:53:29;28.67;;;6.43;;
67751;SDS011;54551;51.068;5.826;2022-12-24T06:56:00;34.53;;;7.17;;
67751;SDS011;54551;51.068;5.826;2022-12-24T06:58:27;27.30;;;5.50;;
67751;SDS011;54551;51.068;5.826;2022-12-24T07:00:53;31.23;;;5.83;;
67751;SDS011;54551;51.068;5.826;2022-12-24T07:03:19;25.33;;;6.30;;
67751;SDS011;54551;51.068;5.826;2022-12-24T07:05:45;32.60;;;7.40;;
67751;SDS011;54551;51.068;5.826;2022-12-24T07:08:10;33.40;;;7.00;;
67751;SDS011;54551;51.068;5.826;2022-12-24T07:10:36;31.83;;;6.50;;
67751;SDS011;54551;51.068;5.826;2022-12-24T07:13:02;37.17;;;7.20;;
67751;SDS011;54551;51.068;5.826;2022-12-24T07:15:29;29.67;;;5.50;;
67751;SDS011;54551;51.068;5.826;2022-12-24T07:17:54;28.47;;;6.60;;
67751;SDS011;54551;51.068;5.826;2022-12-24T07:20:20;37.67;;;6.97;;
67751;SDS011;54551;51.068;5.826;2022-12-24T07:22:46;29.70;;;5.87;;
67751;SDS011;54551;51.068;5.826;2022-12-24T07:25:12;30.33;;;6.37;;
67751;SDS011;54551;51.068;5.826;2022-12-24T07:27:39;27.27;;;5.90;;
67751;SDS011;54551;51.068;5.826;2022-12-24T07:30:05;30.33;;;6.93;;
67751;SDS011;54551;51.068;5.826;2022-12-24T07:32:31;30.33;;;6.87;;
67751;SDS011;54551;51.068;5.826;2022-12-24T07:34:57;27.20;;;6.37;;
67751;SDS011;54551;51.068;5.826;2022-12-24T07:37:23;26.77;;;6.53;;
67751;SDS011;54551;51.068;5.826;2022-12-24T07:39:49;24.70;;;5.67;;
67751;SDS011;54551;51.068;5.826;2022-12-24T07:42:15;31.00;;;6.57;;
67751;SDS011;54551;51.068;5.826;2022-12-24T07:44:41;34.07;;;6.50;;
67751;SDS011;54551;51.068;5.826;2022-12-24T07:47:07;29.40;;;6.50;;
67751;SDS011;54551;51.068;5.826;2022-12-24T07:49:33;30.47;;;6.47;;
67751;SDS011;54551;51.068;5.826;2022-12-24T07:52:00;33.43;;;6.40;;
67751;SDS011;54551;51.068;5.826;2022-12-24T07:54:27;26.20;;;6.23;;
67751;SDS011;54551;51.068;5.826;2022-12-24T07:56:53;28.03;;;5.80;;
67751;SDS011;54551;51.068;5.826;2022-12-24T07:59:19;28.17;;;6.67;;
67751;SDS011;54551;51.068;5.826;2022-12-24T08:01:45;30.10;;;7.17;;
67751;SDS011;54551;51.068;5.826;2022-12-24T08:04:11;30.73;;;6.20;;
67751;SDS011;54551;51.068;5.826;2022-12-24T08:06:37;28.03;;;6.97;;
67751;SDS011;54551;51.068;5.826;2022-12-24T08:09:03;30.57;;;6.57;;
67751;SDS011;54551;51.068;5.826;2022-12-24T08:11:29;26.33;;;7.10;;
67751;SDS011;54551;51.068;5.826;2022-12-24T08:13:55;29.70;;;6.83;;
67751;SDS011;54551;51.068;5.826;2022-12-24T08:16:21;31.47;;;6.37;;
67751;SDS011;54551;51.068;5.826;2022-12-24T08:18:47;36.93;;;7.00;;
67751;SDS011;54551;51.068;5.826;2022-12-24T08:21:13;28.70;;;6.40;;
67751;SDS011;54551;51.068;5.826;2022-12-24T08:23:38;36.47;;;6.73;;
67751;SDS011;54551;51.068;5.826;2022-12-24T08:26:07;30.50;;;6.83;;
67751;SDS011;54551;51.068;5.826;2022-12-24T08:28:35;26.37;;;6.23;;
67751;SDS011;54551;51.068;5.826;2022-12-24T08:31:01;32.83;;;6.30;;
67751;SDS011;54551;51.068;5.826;2022-12-24T08:33:27;31.50;;;6.33;;
67751;SDS011;54551;51.068;5.826;2022-12-24T08:35:54;37.27;;;7.37;;
67751;SDS011;54551;51.068;5.826;2022-12-24T08:38:20;31.77;;;7.00;;
67751;SDS011;54551;51.068;5.826;2022-12-24T08:40:47;33.07;;;6.40;;
67751;SDS011;54551;51.068;5.826;2022-12-24T08:43:14;30.73;;;6.63;;
67751;SDS011;54551;51.068;5.826;2022-12-24T08:45:41;32.57;;;7.37;;
67751;SDS011;54551;51.068;5.826;2022-12-24T08:48:07;33.30;;;6.73;;
67751;SDS011;54551;51.068;5.826;2022-12-24T08:50:34;30.60;;;7.83;;
67751;SDS011;54551;51.068;5.826;2022-12-24T08:53:03;26.87;;;6.97;;
67751;SDS011;54551;51.068;5.826;2022-12-24T08:55:29;32.70;;;7.40;;
67751;SDS011;54551;51.068;5.826;2022-12-24T08:57:55;35.83;;;7.00;;
67751;SDS011;54551;51.068;5.826;2022-12-24T09:00:21;35.93;;;7.87;;
67751;SDS011;54551;51.068;5.826;2022-12-24T09:02:47;29.50;;;7.10;;
67751;SDS011;54551;51.068;5.826;2022-12-24T09:05:12;32.53;;;8.30;;
67751;SDS011;54551;51.068;5.826;2022-12-24T09:07:38;37.40;;;7.57;;
67751;SDS011;54551;51.068;5.826;2022-12-24T09:10:04;30.73;;;6.90;;
67751;SDS011;54551;51.068;5.826;2022-12-24T09:12:32;29.07;;;6.60;;
67751;SDS011;54551;51.068;5.826;2022-12-24T09:14:58;31.60;;;7.07;;
67751;SDS011;54551;51.068;5.826;2022-12-24T09:17:24;32.90;;;7.67;;
67751;SDS011;54551;51.068;5.826;2022-12-24T09:19:51;32.37;;;7.37;;
67751;SDS011;54551;51.068;5.826;2022-12-24T09:22:16;45.33;;;8.33;;
67751;SDS011;54551;51.068;5.826;2022-12-24T09:24:42;31.50;;;7.90;;
67751;SDS011;54551;51.068;5.826;2022-12-24T09:27:08;27.57;;;6.33;;
67751;SDS011;54551;51.068;5.826;2022-12-24T09:29:34;36.03;;;7.63;;
67751;SDS011;54551;51.068;5.826;2022-12-24T09:32:00;32.63;;;7.73;;
67751;SDS011;54551;51.068;5.826;2022-12-24T09:34:26;25.33;;;6.60;;
67751;SDS011;54551;51.068;5.826;2022-12-24T09:36:52;40.07;;;8.17;;
67751;SDS011;54551;51.068;5.826;2022-12-24T09:39:18;33.33;;;7.23;;
67751;SDS011;54551;51.068;5.826;2022-12-24T09:46:52;39.40;;;7.67;;
67751;SDS011;54551;51.068;5.826;2022-12-24T09:49:20;33.63;;;7.67;;
67751;SDS011;54551;51.068;5.826;2022-12-24T09:51:54;32.07;;;7.17;;
67751;SDS011;54551;51.068;5.826;2022-12-24T09:54:33;32.50;;;7.63;;
67751;SDS011;54551;51.068;5.826;2022-12-24T09:57:07;35.13;;;7.80;;
67751;SDS011;54551;51.068;5.826;2022-12-24T09:59:41;32.77;;;7.63;;
67751;SDS011;54551;51.068;5.826;2022-12-24T10:02:13;35.73;;;6.37;;
67751;SDS011;54551;51.068;5.826;2022-12-24T10:04:41;34.17;;;6.87;;
67751;SDS011;54551;51.068;5.826;2022-12-24T10:10:11;30.20;;;6.47;;
67751;SDS011;54551;51.068;5.826;2022-12-24T10:13:15;25.80;;;7.10;;
67751;SDS011;54551;51.068;5.826;2022-12-24T10:15:49;34.07;;;7.30;;
67751;SDS011;54551;51.068;5.826;2022-12-24T10:20:59;28.53;;;6.27;;
67751;SDS011;54551;51.068;5.826;2022-12-24T10:28:58;29.37;;;6.97;;
67751;SDS011;54551;51.068;5.826;2022-12-24T10:31:34;37.50;;;7.73;;
67751;SDS011;54551;51.068;5.826;2022-12-24T10:34:04;29.23;;;6.37;;
67751;SDS011;54551;51.068;5.826;2022-12-24T10:36:40;30.90;;;6.43;;
67751;SDS011;54551;51.068;5.826;2022-12-24T10:39:09;29.07;;;6.47;;
67751;SDS011;54551;51.068;5.826;2022-12-24T10:41:47;31.63;;;7.03;;
67751;SDS011;54551;51.068;5.826;2022-12-24T10:44:16;31.53;;;7.30;;
67751;SDS011;54551;51.068;5.826;2022-12-24T10:46:45;27.63;;;7.63;;
67751;SDS011;54551;51.068;5.826;2022-12-24T10:49:16;24.00;;;5.57;;
67751;SDS011;54551;51.068;5.826;2022-12-24T10:51:45;26.87;;;6.27;;
67751;SDS011;54551;51.068;5.826;2022-12-24T10:54:19;28.10;;;7.13;;
67751;SDS011;54551;51.068;5.826;2022-12-24T10:56:48;28.87;;;7.13;;
67751;SDS011;54551;51.068;5.826;2022-12-24T11:01:51;28.60;;;6.67;;
67751;SDS011;54551;51.068;5.826;2022-12-24T11:04:19;28.67;;;7.17;;
67751;SDS011;54551;51.068;5.826;2022-12-24T11:09:31;28.47;;;7.67;;
67751;SDS011;54551;51.068;5.826;2022-12-24T11:12:04;28.47;;;6.70;;
67751;SDS011;54551;51.068;5.826;2022-12-24T11:14:39;33.87;;;7.23;;
67751;SDS011;54551;51.068;5.826;2022-12-24T11:17:05;26.37;;;6.50;;
67751;SDS011;54551;51.068;5.826;2022-12-24T11:19:38;25.97;;;6.60;;
67751;SDS011;54551;51.068;5.826;2022-12-24T11:22:14;31.30;;;7.50;;
67751;SDS011;54551;51.068;5.826;2022-12-24T11:24:43;29.73;;;7.40;;
67751;SDS011;54551;51.068;5.826;2022-12-24T11:32:44;27.30;;;6.20;;
67751;SDS011;54551;51.068;5.826;2022-12-24T11:35:15;28.97;;;6.87;;
67751;SDS011;54551;51.068;5.826;2022-12-24T11:37:41;25.60;;;6.70;;
67751;SDS011;54551;51.068;5.826;2022-12-24T11:40:17;31.90;;;6.97;;
67751;SDS011;54551;51.068;5.826;2022-12-24T11:42:46;24.27;;;6.30;;
67751;SDS011;54551;51.068;5.826;2022-12-24T11:47:50;27.70;;;6.60;;
67751;SDS011;54551;51.068;5.826;2022-12-24T11:50:26;18.23;;;5.20;;
67751;SDS011;54551;51.068;5.826;2022-12-24T12:01:23;24.70;;;6.13;;
67751;SDS011;54551;51.068;5.826;2022-12-24T12:09:27;25.27;;;5.90;;
67751;SDS011;54551;51.068;5.826;2022-12-24T12:11:59;24.93;;;6.43;;
67751;SDS011;54551;51.068;5.826;2022-12-24T12:14:33;19.53;;;4.97;;
67751;SDS011;54551;51.068;5.826;2022-12-24T12:17:13;24.70;;;6.30;;
67751;SDS011;54551;51.068;5.826;2022-12-24T12:20:00;24.03;;;6.00;;
67751;SDS011;54551;51.068;5.826;2022-12-24T12:23:04;26.37;;;6.30;;
67751;SDS011;54551;51.068;5.826;2022-12-24T12:25:44;24.23;;;6.20;;
67751;SDS011;54551;51.068;5.826;2022-12-24T12:31:32;20.10;;;5.43;;
67751;SDS011;54551;51.068;5.826;2022-12-24T12:36:47;27.77;;;7.00;;
67751;SDS011;54551;51.068;5.826;2022-12-24T12:39:16;26.80;;;6.10;;
67751;SDS011;54551;51.068;5.826;2022-12-24T12:55:59;21.03;;;5.97;;
67751;SDS011;54551;51.068;5.826;2022-12-24T13:01:13;28.03;;;5.80;;
67751;SDS011;54551;51.068;5.826;2022-12-24T13:06:38;22.50;;;5.47;;
67751;SDS011;54551;51.068;5.826;2022-12-24T13:17:33;24.37;;;6.27;;
67751;SDS011;54551;51.068;5.826;2022-12-24T13:22:35;23.13;;;6.20;;
67751;SDS011;54551;51.068;5.826;2022-12-24T13:25:01;21.50;;;5.23;;
67751;SDS011;54551;51.068;5.826;2022-12-24T13:27:28;23.03;;;6.17;;
67751;SDS011;54551;51.068;5.826;2022-12-24T13:30:00;27.67;;;6.17;;
67751;SDS011;54551;51.068;5.826;2022-12-24T13:32:38;22.23;;;5.67;;
67751;SDS011;54551;51.068;5.826;2022-12-24T13:35:30;18.10;;;5.23;;
67751;SDS011;54551;51.068;5.826;2022-12-24T13:40:52;26.53;;;5.93;;
67751;SDS011;54551;51.068;5.826;2022-12-24T13:43:19;18.23;;;5.13;;
67751;SDS011;54551;51.068;5.826;2022-12-24T13:45:46;24.43;;;5.37;;
67751;SDS011;54551;51.068;5.826;2022-12-24T13:48:30;20.87;;;5.37;;
67751;SDS011;54551;51.068;5.826;2022-12-24T13:50:58;26.07;;;5.93;;
67751;SDS011;54551;51.068;5.826;2022-12-24T13:53:42;21.50;;;5.43;;
67751;SDS011;54551;51.068;5.826;2022-12-24T13:58:49;20.37;;;4.80;;
67751;SDS011;54551;51.068;5.826;2022-12-24T14:01:20;24.07;;;5.40;;
67751;SDS011;54551;51.068;5.826;2022-12-24T14:03:57;20.43;;;5.70;;
67751;SDS011;54551;51.068;5.826;2022-12-24T14:06:26;23.43;;;5.57;;
67751;SDS011;54551;51.068;5.826;2022-12-24T14:08:57;22.50;;;6.17;;
67751;SDS011;54551;51.068;5.826;2022-12-24T14:14:38;27.53;;;6.23;;
67751;SDS011;54551;51.068;5.826;2022-12-24T14:19:53;25.87;;;6.10;;
67751;SDS011;54551;51.068;5.826;2022-12-24T14:22:26;20.07;;;5.73;;
67751;SDS011;54551;51.068;5.826;2022-12-24T14:28:05;19.70;;;5.63;;
67751;SDS011;54551;51.068;5.826;2022-12-24T14:30:41;24.83;;;5.70;;
67751;SDS011;54551;51.068;5.826;2022-12-24T14:33:26;21.80;;;5.83;;
67751;SDS011;54551;51.068;5.826;2022-12-24T14:35:53;20.73;;;4.97;;
67751;SDS011;54551;51.068;5.826;2022-12-24T14:38:19;24.73;;;5.97;;
67751;SDS011;54551;51.068;5.826;2022-12-24T14:54:56;21.07;;;4.73;;
67751;SDS011;54551;51.068;5.826;2022-12-24T14:57:23;21.90;;;5.27;;
67751;SDS011;54551;51.068;5.826;2022-12-24T15:05:01;29.37;;;6.37;;
67751;SDS011;54551;51.068;5.826;2022-12-24T15:08:03;25.20;;;5.77;;
67751;SDS011;54551;51.068;5.826;2022-12-24T15:10:35;28.97;;;5.87;;
67751;SDS011;54551;51.068;5.826;2022-12-24T15:13:04;25.47;;;5.80;;
67751;SDS011;54551;51.068;5.826;2022-12-24T15:15:34;29.80;;;6.33;;
67751;SDS011;54551;51.068;5.826;2022-12-24T15:18:01;23.70;;;6.23;;
67751;SDS011;54551;51.068;5.826;2022-12-24T15:20:28;22.07;;;5.57;;
67751;SDS011;54551;51.068;5.826;2022-12-24T15:22:56;20.80;;;5.13;;
67751;SDS011;54551;51.068;5.826;2022-12-24T15:25:24;25.90;;;5.90;;
67751;SDS011;54551;51.068;5.826;2022-12-24T15:27:53;23.27;;;5.57;;
67751;SDS011;54551;51.068;5.826;2022-12-24T15:30:20;30.80;;;6.27;;
67751;SDS011;54551;51.068;5.826;2022-12-24T15:32:52;24.63;;;6.23;;
67751;SDS011;54551;51.068;5.826;2022-12-24T15:35:29;23.17;;;5.57;;
67751;SDS011;54551;51.068;5.826;2022-12-24T15:38:01;26.80;;;6.27;;
67751;SDS011;54551;51.068;5.826;2022-12-24T15:40:28;21.37;;;6.60;;
67751;SDS011;54551;51.068;5.826;2022-12-24T15:42:54;27.27;;;6.20;;
67751;SDS011;54551;51.068;5.826;2022-12-24T15:45:21;25.80;;;5.80;;
67751;SDS011;54551;51.068;5.826;2022-12-24T15:47:51;21.87;;;5.10;;
67751;SDS011;54551;51.068;5.826;2022-12-24T15:50:27;30.77;;;7.50;;
67751;SDS011;54551;51.068;5.826;2022-12-24T15:53:12;26.67;;;7.00;;
67751;SDS011;54551;51.068;5.826;2022-12-24T15:55:42;22.20;;;8.03;;
67751;SDS011;54551;51.068;5.826;2022-12-24T15:58:17;27.93;;;7.50;;
67751;SDS011;54551;51.068;5.826;2022-12-24T16:00:59;28.13;;;8.20;;
67751;SDS011;54551;51.068;5.826;2022-12-24T16:03:25;29.40;;;7.40;;
67751;SDS011;54551;51.068;5.826;2022-12-24T16:05:58;25.13;;;6.87;;
67751;SDS011;54551;51.068;5.826;2022-12-24T16:08:33;20.80;;;6.07;;
67751;SDS011;54551;51.068;5.826;2022-12-24T16:11:13;25.27;;;6.53;;
67751;SDS011;54551;51.068;5.826;2022-12-24T16:16:15;19.93;;;6.10;;
67751;SDS011;54551;51.068;5.826;2022-12-24T16:21:18;30.83;;;10.60;;
67751;SDS011;54551;51.068;5.826;2022-12-24T16:23:51;35.60;;;7.07;;
67751;SDS011;54551;51.068;5.826;2022-12-24T16:26:20;29.97;;;6.50;;
67751;SDS011;54551;51.068;5.826;2022-12-24T16:28:46;21.33;;;6.50;;
67751;SDS011;54551;51.068;5.826;2022-12-24T16:31:36;22.77;;;6.00;;
67751;SDS011;54551;51.068;5.826;2022-12-24T16:34:03;30.27;;;6.93;;
67751;SDS011;54551;51.068;5.826;2022-12-24T16:36:30;21.47;;;6.30;;
67751;SDS011;54551;51.068;5.826;2022-12-24T16:38:57;19.73;;;6.03;;
67751;SDS011;54551;51.068;5.826;2022-12-24T16:41:41;21.93;;;5.83;;
67751;SDS011;54551;51.068;5.826;2022-12-24T16:44:26;19.47;;;5.87;;
67751;SDS011;54551;51.068;5.826;2022-12-24T16:46:52;21.27;;;5.53;;
67751;SDS011;54551;51.068;5.826;2022-12-24T16:49:19;22.80;;;6.27;;
67751;SDS011;54551;51.068;5.826;2022-12-24T16:51:46;24.97;;;8.97;;
67751;SDS011;54551;51.068;5.826;2022-12-24T16:54:13;29.77;;;10.07;;
67751;SDS011;54551;51.068;5.826;2022-12-24T16:56:42;27.50;;;9.53;;
67751;SDS011;54551;51.068;5.826;2022-12-24T16:59:14;25.23;;;8.30;;
67751;SDS011;54551;51.068;5.826;2022-12-24T17:01:42;20.90;;;7.80;;
67751;SDS011;54551;51.068;5.826;2022-12-24T17:04:08;23.40;;;7.20;;
67751;SDS011;54551;51.068;5.826;2022-12-24T17:06:34;29.20;;;8.07;;
67751;SDS011;54551;51.068;5.826;2022-12-24T17:09:01;24.10;;;6.97;;